sensor_id;sensor_type;location;lat;lon;timestamp;P1;durP1;ratioP1;P2;durP2;ratioP2
3627;SDS011;1830;49.000;12.074;2023-04-19T00:01:09;34.43;;;21.07;;
3627;SDS011;1830;49.000;12.074;2023-04-19T00:03:36;25.73;;;18.80;;
3627;SDS011;1830;49.000;12.074;2023-04-19T00:06:03;27.40;;;20.50;;
3627;SDS011;1830;49.000;12.074;2023-04-19T00:08:32;29.40;;;20.90;;
3627;SDS011;1830;49.000;12.074;2023-04-19T00:10:59;27.67;;;21.00;;
3627;SDS011;1830;49.000;12.074;2023-04-19T00:13:25;33.13;;;20.80;;
3627;SDS011;1830;49.000;12.074;2023-04-19T00:15:52;24.50;;;18.97;;
3627;SDS011;1830;49.000;12.074;2023-04-19T00:18:29;27.97;;;21.20;;
3627;SDS011;1830;49.000;12.074;2023-04-19T00:20:55;30.53;;;19.80;;
3627;SDS011;1830;49.000;12.074;2023-04-19T00:23:22;31.07;;;21.27;;
3627;SDS011;1830;49.000;12.074;2023-04-19T00:25:49;30.47;;;20.97;;
3627;SDS011;1830;49.000;12.074;2023-04-19T00:28:16;30.40;;;20.97;;
3627;SDS011;1830;49.000;12.074;2023-04-19T00:30:43;30.43;;;20.60;;
3627;SDS011;1830;49.000;12.074;2023-04-19T00:33:10;27.90;;;20.20;;
3627;SDS011;1830;49.000;12.074;2023-04-19T00:35:39;30.67;;;21.27;;
3627;SDS011;1830;49.000;12.074;2023-04-19T00:38:06;28.70;;;20.50;;
3627;SDS011;1830;49.000;12.074;2023-04-19T00:40:33;29.60;;;20.00;;
3627;SDS011;1830;49.000;12.074;2023-04-19T00:43:01;30.40;;;19.43;;
3627;SDS011;1830;49.000;12.074;2023-04-19T00:45:28;28.73;;;21.17;;
3627;SDS011;1830;49.000;12.074;2023-04-19T00:47:55;24.40;;;19.17;;
3627;SDS011;1830;49.000;12.074;2023-04-19T00:50:22;32.00;;;20.57;;
3627;SDS011;1830;49.000;12.074;2023-04-19T00:52:50;31.47;;;22.10;;
3627;SDS011;1830;49.000;12.074;2023-04-19T00:55:20;30.70;;;20.93;;
3627;SDS011;1830;49.000;12.074;2023-04-19T00:57:47;24.77;;;19.60;;
3627;SDS011;1830;49.000;12.074;2023-04-19T01:00:16;30.40;;;20.77;;
3627;SDS011;1830;49.000;12.074;2023-04-19T01:02:43;31.07;;;22.10;;
3627;SDS011;1830;49.000;12.074;2023-04-19T01:05:10;33.60;;;21.93;;
3627;SDS011;1830;49.000;12.074;2023-04-19T01:07:37;33.40;;;22.17;;
3627;SDS011;1830;49.000;12.074;2023-04-19T01:10:06;25.93;;;19.83;;
3627;SDS011;1830;49.000;12.074;2023-04-19T01:12:33;31.33;;;20.33;;
3627;SDS011;1830;49.000;12.074;2023-04-19T01:15:00;29.20;;;21.40;;
3627;SDS011;1830;49.000;12.074;2023-04-19T01:17:27;31.97;;;22.53;;
3627;SDS011;1830;49.000;12.074;2023-04-19T01:19:59;28.97;;;21.53;;
3627;SDS011;1830;49.000;12.074;2023-04-19T01:22:28;30.27;;;21.77;;
3627;SDS011;1830;49.000;12.074;2023-04-19T01:24:56;32.43;;;23.13;;
3627;SDS011;1830;49.000;12.074;2023-04-19T01:27:23;34.00;;;21.17;;
3627;SDS011;1830;49.000;12.074;2023-04-19T01:29:50;26.80;;;20.47;;
3627;SDS011;1830;49.000;12.074;2023-04-19T01:32:17;29.10;;;20.77;;
3627;SDS011;1830;49.000;12.074;2023-04-19T01:34:44;31.30;;;22.57;;
3627;SDS011;1830;49.000;12.074;2023-04-19T01:37:11;35.33;;;23.73;;
3627;SDS011;1830;49.000;12.074;2023-04-19T01:39:39;32.10;;;22.40;;
3627;SDS011;1830;49.000;12.074;2023-04-19T01:42:05;33.87;;;23.40;;
3627;SDS011;1830;49.000;12.074;2023-04-19T01:44:32;31.90;;;22.03;;
3627;SDS011;1830;49.000;12.074;2023-04-19T01:46:59;35.10;;;23.37;;
3627;SDS011;1830;49.000;12.074;2023-04-19T01:49:26;38.17;;;25.13;;
3627;SDS011;1830;49.000;12.074;2023-04-19T01:51:52;39.30;;;24.03;;
3627;SDS011;1830;49.000;12.074;2023-04-19T01:54:19;31.60;;;22.33;;
3627;SDS011;1830;49.000;12.074;2023-04-19T01:56:47;32.60;;;23.07;;
3627;SDS011;1830;49.000;12.074;2023-04-19T01:59:14;32.47;;;23.50;;
3627;SDS011;1830;49.000;12.074;2023-04-19T02:01:41;32.70;;;23.00;;
3627;SDS011;1830;49.000;12.074;2023-04-19T02:04:08;39.00;;;24.60;;
3627;SDS011;1830;49.000;12.074;2023-04-19T02:06:35;35.27;;;23.60;;
3627;SDS011;1830;49.000;12.074;2023-04-19T02:09:02;45.47;;;23.67;;
3627;SDS011;1830;49.000;12.074;2023-04-19T02:11:28;37.97;;;24.23;;
3627;SDS011;1830;49.000;12.074;2023-04-19T02:13:56;39.40;;;24.80;;
3627;SDS011;1830;49.000;12.074;2023-04-19T02:16:23;31.40;;;23.67;;
3627;SDS011;1830;49.000;12.074;2023-04-19T02:18:50;37.73;;;23.37;;
3627;SDS011;1830;49.000;12.074;2023-04-19T02:21:17;39.43;;;23.27;;
3627;SDS011;1830;49.000;12.074;2023-04-19T02:23:44;35.63;;;24.80;;
3627;SDS011;1830;49.000;12.074;2023-04-19T02:26:10;35.63;;;23.17;;
3627;SDS011;1830;49.000;12.074;2023-04-19T02:28:38;37.57;;;24.03;;
3627;SDS011;1830;49.000;12.074;2023-04-19T02:31:06;39.03;;;23.40;;
3627;SDS011;1830;49.000;12.074;2023-04-19T02:33:33;39.53;;;24.50;;
3627;SDS011;1830;49.000;12.074;2023-04-19T02:36:00;40.70;;;25.10;;
3627;SDS011;1830;49.000;12.074;2023-04-19T02:38:27;35.37;;;24.87;;
3627;SDS011;1830;49.000;12.074;2023-04-19T02:40:53;34.90;;;23.70;;
3627;SDS011;1830;49.000;12.074;2023-04-19T02:43:20;35.60;;;24.63;;
3627;SDS011;1830;49.000;12.074;2023-04-19T02:45:47;34.60;;;23.97;;
3627;SDS011;1830;49.000;12.074;2023-04-19T02:48:16;35.93;;;23.40;;
3627;SDS011;1830;49.000;12.074;2023-04-19T02:50:42;35.63;;;24.23;;
3627;SDS011;1830;49.000;12.074;2023-04-19T02:53:09;34.67;;;25.57;;
3627;SDS011;1830;49.000;12.074;2023-04-19T02:55:36;36.60;;;24.67;;
3627;SDS011;1830;49.000;12.074;2023-04-19T02:58:03;35.87;;;25.07;;
3627;SDS011;1830;49.000;12.074;2023-04-19T03:00:29;41.80;;;24.90;;
3627;SDS011;1830;49.000;12.074;2023-04-19T03:02:56;37.03;;;24.60;;
3627;SDS011;1830;49.000;12.074;2023-04-19T03:05:24;43.43;;;25.67;;
3627;SDS011;1830;49.000;12.074;2023-04-19T03:07:51;38.83;;;26.50;;
3627;SDS011;1830;49.000;12.074;2023-04-19T03:10:18;40.20;;;27.30;;
3627;SDS011;1830;49.000;12.074;2023-04-19T03:12:45;45.33;;;25.63;;
3627;SDS011;1830;49.000;12.074;2023-04-19T03:15:12;36.53;;;25.60;;
3627;SDS011;1830;49.000;12.074;2023-04-19T03:17:38;35.37;;;25.20;;
3627;SDS011;1830;49.000;12.074;2023-04-19T03:20:06;40.47;;;26.03;;
3627;SDS011;1830;49.000;12.074;2023-04-19T03:22:37;42.00;;;27.10;;
3627;SDS011;1830;49.000;12.074;2023-04-19T03:25:04;44.03;;;28.60;;
3627;SDS011;1830;49.000;12.074;2023-04-19T03:27:33;44.03;;;25.80;;
3627;SDS011;1830;49.000;12.074;2023-04-19T03:30:01;40.30;;;27.40;;
3627;SDS011;1830;49.000;12.074;2023-04-19T03:32:27;37.37;;;25.23;;
3627;SDS011;1830;49.000;12.074;2023-04-19T03:34:54;43.40;;;26.43;;
3627;SDS011;1830;49.000;12.074;2023-04-19T03:37:21;41.13;;;26.10;;
3627;SDS011;1830;49.000;12.074;2023-04-19T03:39:49;42.03;;;27.10;;
3627;SDS011;1830;49.000;12.074;2023-04-19T03:42:16;48.47;;;27.70;;
3627;SDS011;1830;49.000;12.074;2023-04-19T03:44:43;50.57;;;27.63;;
3627;SDS011;1830;49.000;12.074;2023-04-19T03:47:09;40.30;;;26.90;;
3627;SDS011;1830;49.000;12.074;2023-04-19T03:49:36;39.13;;;25.80;;
3627;SDS011;1830;49.000;12.074;2023-04-19T03:52:03;42.63;;;27.90;;
3627;SDS011;1830;49.000;12.074;2023-04-19T03:54:30;51.13;;;28.53;;
3627;SDS011;1830;49.000;12.074;2023-04-19T03:56:58;42.47;;;26.70;;
3627;SDS011;1830;49.000;12.074;2023-04-19T03:59:25;42.10;;;27.97;;
3627;SDS011;1830;49.000;12.074;2023-04-19T04:01:52;44.63;;;29.40;;
3627;SDS011;1830;49.000;12.074;2023-04-19T04:04:19;45.07;;;28.10;;
3627;SDS011;1830;49.000;12.074;2023-04-19T04:06:54;44.90;;;28.77;;
3627;SDS011;1830;49.000;12.074;2023-04-19T04:09:21;41.10;;;27.70;;
3627;SDS011;1830;49.000;12.074;2023-04-19T04:11:47;43.60;;;27.50;;
3627;SDS011;1830;49.000;12.074;2023-04-19T04:14:16;43.27;;;27.07;;
3627;SDS011;1830;49.000;12.074;2023-04-19T04:16:42;46.80;;;29.87;;
3627;SDS011;1830;49.000;12.074;2023-04-19T04:19:09;47.57;;;28.23;;
3627;SDS011;1830;49.000;12.074;2023-04-19T04:21:37;44.83;;;28.63;;
3627;SDS011;1830;49.000;12.074;2023-04-19T04:24:05;49.67;;;28.50;;
3627;SDS011;1830;49.000;12.074;2023-04-19T04:26:49;46.37;;;28.17;;
3627;SDS011;1830;49.000;12.074;2023-04-19T04:29:17;40.67;;;27.30;;
3627;SDS011;1830;49.000;12.074;2023-04-19T04:31:44;49.07;;;28.70;;
3627;SDS011;1830;49.000;12.074;2023-04-19T04:34:11;45.47;;;29.00;;
3627;SDS011;1830;49.000;12.074;2023-04-19T04:36:38;41.93;;;28.23;;
3627;SDS011;1830;49.000;12.074;2023-04-19T04:39:05;43.97;;;28.50;;
3627;SDS011;1830;49.000;12.074;2023-04-19T04:41:34;46.53;;;28.00;;
3627;SDS011;1830;49.000;12.074;2023-04-19T04:44:01;45.77;;;28.50;;
3627;SDS011;1830;49.000;12.074;2023-04-19T04:46:30;42.27;;;27.63;;
3627;SDS011;1830;49.000;12.074;2023-04-19T04:48:56;42.73;;;29.10;;
3627;SDS011;1830;49.000;12.074;2023-04-19T04:51:23;46.20;;;28.00;;
3627;SDS011;1830;49.000;12.074;2023-04-19T04:53:51;44.40;;;28.43;;
3627;SDS011;1830;49.000;12.074;2023-04-19T04:56:18;43.03;;;27.43;;
3627;SDS011;1830;49.000;12.074;2023-04-19T04:58:44;43.70;;;29.27;;
3627;SDS011;1830;49.000;12.074;2023-04-19T05:01:11;51.60;;;30.27;;
3627;SDS011;1830;49.000;12.074;2023-04-19T05:03:41;49.43;;;28.10;;
3627;SDS011;1830;49.000;12.074;2023-04-19T05:06:08;41.93;;;27.37;;
3627;SDS011;1830;49.000;12.074;2023-04-19T05:08:39;46.57;;;28.80;;
3627;SDS011;1830;49.000;12.074;2023-04-19T05:11:06;44.93;;;28.50;;
3627;SDS011;1830;49.000;12.074;2023-04-19T05:13:33;46.50;;;29.53;;
3627;SDS011;1830;49.000;12.074;2023-04-19T05:16:00;47.40;;;28.90;;
3627;SDS011;1830;49.000;12.074;2023-04-19T05:18:27;41.90;;;29.07;;
3627;SDS011;1830;49.000;12.074;2023-04-19T05:20:55;44.33;;;27.53;;
3627;SDS011;1830;49.000;12.074;2023-04-19T05:23:22;42.90;;;27.87;;
3627;SDS011;1830;49.000;12.074;2023-04-19T05:25:48;48.67;;;27.67;;
3627;SDS011;1830;49.000;12.074;2023-04-19T05:28:15;55.17;;;28.90;;
3627;SDS011;1830;49.000;12.074;2023-04-19T05:30:42;45.47;;;28.03;;
3627;SDS011;1830;49.000;12.074;2023-04-19T05:33:09;50.77;;;28.23;;
3627;SDS011;1830;49.000;12.074;2023-04-19T05:35:36;43.53;;;29.00;;
3627;SDS011;1830;49.000;12.074;2023-04-19T05:38:04;44.03;;;27.90;;
3627;SDS011;1830;49.000;12.074;2023-04-19T05:40:31;46.30;;;27.20;;
3627;SDS011;1830;49.000;12.074;2023-04-19T05:42:59;48.93;;;30.20;;
3627;SDS011;1830;49.000;12.074;2023-04-19T05:45:26;46.33;;;28.97;;
3627;SDS011;1830;49.000;12.074;2023-04-19T05:47:55;48.07;;;28.90;;
3627;SDS011;1830;49.000;12.074;2023-04-19T05:50:21;51.53;;;29.40;;
3627;SDS011;1830;49.000;12.074;2023-04-19T05:52:48;59.33;;;26.57;;
3627;SDS011;1830;49.000;12.074;2023-04-19T05:55:16;45.53;;;27.30;;
3627;SDS011;1830;49.000;12.074;2023-04-19T05:57:43;42.23;;;28.73;;
3627;SDS011;1830;49.000;12.074;2023-04-19T06:00:10;54.73;;;28.60;;
3627;SDS011;1830;49.000;12.074;2023-04-19T06:02:37;41.50;;;27.83;;
3627;SDS011;1830;49.000;12.074;2023-04-19T06:05:04;38.37;;;27.50;;
3627;SDS011;1830;49.000;12.074;2023-04-19T06:07:32;39.73;;;26.40;;
3627;SDS011;1830;49.000;12.074;2023-04-19T06:09:58;40.80;;;26.47;;
3627;SDS011;1830;49.000;12.074;2023-04-19T06:12:27;41.43;;;26.53;;
3627;SDS011;1830;49.000;12.074;2023-04-19T06:14:53;41.30;;;26.40;;
3627;SDS011;1830;49.000;12.074;2023-04-19T06:17:20;38.33;;;25.57;;
3627;SDS011;1830;49.000;12.074;2023-04-19T06:19:49;44.40;;;26.77;;
3627;SDS011;1830;49.000;12.074;2023-04-19T06:22:16;43.80;;;27.13;;
3627;SDS011;1830;49.000;12.074;2023-04-19T06:24:43;47.40;;;28.13;;
3627;SDS011;1830;49.000;12.074;2023-04-19T06:27:10;39.03;;;24.17;;
3627;SDS011;1830;49.000;12.074;2023-04-19T06:29:38;38.83;;;26.23;;
3627;SDS011;1830;49.000;12.074;2023-04-19T06:32:05;49.37;;;28.87;;
3627;SDS011;1830;49.000;12.074;2023-04-19T06:34:32;35.23;;;24.37;;
3627;SDS011;1830;49.000;12.074;2023-04-19T06:37:01;36.83;;;25.37;;
3627;SDS011;1830;49.000;12.074;2023-04-19T06:39:28;40.83;;;26.80;;
3627;SDS011;1830;49.000;12.074;2023-04-19T06:41:55;35.63;;;23.00;;
3627;SDS011;1830;49.000;12.074;2023-04-19T06:44:21;39.17;;;25.00;;
3627;SDS011;1830;49.000;12.074;2023-04-19T06:46:49;41.23;;;27.63;;
3627;SDS011;1830;49.000;12.074;2023-04-19T06:49:16;45.17;;;25.73;;
3627;SDS011;1830;49.000;12.074;2023-04-19T06:51:43;41.73;;;27.80;;
3627;SDS011;1830;49.000;12.074;2023-04-19T06:54:10;38.53;;;23.87;;
3627;SDS011;1830;49.000;12.074;2023-04-19T06:56:42;36.90;;;24.43;;
3627;SDS011;1830;49.000;12.074;2023-04-19T06:59:11;43.63;;;24.30;;
3627;SDS011;1830;49.000;12.074;2023-04-19T07:01:38;37.93;;;24.17;;
3627;SDS011;1830;49.000;12.074;2023-04-19T07:04:06;32.53;;;23.27;;
3627;SDS011;1830;49.000;12.074;2023-04-19T07:06:33;42.60;;;25.50;;
3627;SDS011;1830;49.000;12.074;2023-04-19T07:09:00;58.13;;;34.13;;
3627;SDS011;1830;49.000;12.074;2023-04-19T07:11:28;36.03;;;23.13;;
3627;SDS011;1830;49.000;12.074;2023-04-19T07:13:55;36.10;;;24.40;;
3627;SDS011;1830;49.000;12.074;2023-04-19T07:16:21;36.23;;;25.80;;
3627;SDS011;1830;49.000;12.074;2023-04-19T07:18:48;36.30;;;24.73;;
3627;SDS011;1830;49.000;12.074;2023-04-19T07:21:16;30.17;;;21.97;;
3627;SDS011;1830;49.000;12.074;2023-04-19T07:23:43;32.43;;;23.63;;
3627;SDS011;1830;49.000;12.074;2023-04-19T07:26:10;39.37;;;24.10;;
3627;SDS011;1830;49.000;12.074;2023-04-19T07:28:39;43.13;;;26.03;;
3627;SDS011;1830;49.000;12.074;2023-04-19T07:31:05;39.23;;;26.20;;
3627;SDS011;1830;49.000;12.074;2023-04-19T07:33:32;43.90;;;26.60;;
3627;SDS011;1830;49.000;12.074;2023-04-19T07:35:59;58.77;;;38.50;;
3627;SDS011;1830;49.000;12.074;2023-04-19T07:38:27;45.80;;;29.63;;
3627;SDS011;1830;49.000;12.074;2023-04-19T07:40:54;41.10;;;28.53;;
3627;SDS011;1830;49.000;12.074;2023-04-19T07:43:21;36.57;;;25.90;;
3627;SDS011;1830;49.000;12.074;2023-04-19T07:45:47;39.70;;;25.80;;
3627;SDS011;1830;49.000;12.074;2023-04-19T07:48:14;36.30;;;24.13;;
3627;SDS011;1830;49.000;12.074;2023-04-19T07:50:41;38.40;;;25.30;;
3627;SDS011;1830;49.000;12.074;2023-04-19T07:53:08;37.67;;;22.70;;
3627;SDS011;1830;49.000;12.074;2023-04-19T07:55:36;38.80;;;25.07;;
3627;SDS011;1830;49.000;12.074;2023-04-19T07:58:03;36.87;;;23.43;;
3627;SDS011;1830;49.000;12.074;2023-04-19T08:00:29;29.57;;;22.27;;
3627;SDS011;1830;49.000;12.074;2023-04-19T08:02:58;33.47;;;23.30;;
3627;SDS011;1830;49.000;12.074;2023-04-19T08:05:25;45.30;;;31.03;;
3627;SDS011;1830;49.000;12.074;2023-04-19T08:07:52;70.20;;;42.93;;
3627;SDS011;1830;49.000;12.074;2023-04-19T08:10:19;84.20;;;49.10;;
3627;SDS011;1830;49.000;12.074;2023-04-19T08:12:47;49.70;;;28.93;;
3627;SDS011;1830;49.000;12.074;2023-04-19T08:15:15;38.20;;;27.00;;
3627;SDS011;1830;49.000;12.074;2023-04-19T08:17:41;38.50;;;26.10;;
3627;SDS011;1830;49.000;12.074;2023-04-19T08:20:09;37.10;;;26.57;;
3627;SDS011;1830;49.000;12.074;2023-04-19T08:22:37;40.40;;;28.50;;
3627;SDS011;1830;49.000;12.074;2023-04-19T08:25:12;34.50;;;25.60;;
3627;SDS011;1830;49.000;12.074;2023-04-19T08:27:40;40.90;;;26.20;;
3627;SDS011;1830;49.000;12.074;2023-04-19T08:30:09;36.87;;;25.37;;
3627;SDS011;1830;49.000;12.074;2023-04-19T08:32:36;30.00;;;21.97;;
3627;SDS011;1830;49.000;12.074;2023-04-19T08:35:03;33.83;;;22.70;;
3627;SDS011;1830;49.000;12.074;2023-04-19T08:37:32;31.53;;;22.93;;
3627;SDS011;1830;49.000;12.074;2023-04-19T08:39:59;36.37;;;24.90;;
3627;SDS011;1830;49.000;12.074;2023-04-19T08:42:27;37.47;;;24.43;;
3627;SDS011;1830;49.000;12.074;2023-04-19T08:44:56;34.53;;;24.30;;
3627;SDS011;1830;49.000;12.074;2023-04-19T08:47:28;35.90;;;25.40;;
3627;SDS011;1830;49.000;12.074;2023-04-19T08:49:57;30.37;;;22.57;;
3627;SDS011;1830;49.000;12.074;2023-04-19T08:52:26;37.13;;;26.30;;
3627;SDS011;1830;49.000;12.074;2023-04-19T08:54:53;38.33;;;25.53;;
3627;SDS011;1830;49.000;12.074;2023-04-19T08:57:20;39.03;;;25.47;;
3627;SDS011;1830;49.000;12.074;2023-04-19T08:59:47;44.53;;;28.13;;
3627;SDS011;1830;49.000;12.074;2023-04-19T09:02:19;64.07;;;37.00;;
3627;SDS011;1830;49.000;12.074;2023-04-19T09:04:47;64.43;;;39.57;;
3627;SDS011;1830;49.000;12.074;2023-04-19T09:07:21;53.50;;;33.73;;
3627;SDS011;1830;49.000;12.074;2023-04-19T09:09:52;50.97;;;33.10;;
3627;SDS011;1830;49.000;12.074;2023-04-19T09:12:30;53.97;;;32.33;;
3627;SDS011;1830;49.000;12.074;2023-04-19T09:14:59;39.87;;;27.33;;
3627;SDS011;1830;49.000;12.074;2023-04-19T09:17:26;48.93;;;30.97;;
3627;SDS011;1830;49.000;12.074;2023-04-19T09:19:54;55.33;;;36.30;;
3627;SDS011;1830;49.000;12.074;2023-04-19T09:22:21;46.07;;;27.90;;
3627;SDS011;1830;49.000;12.074;2023-04-19T09:24:49;38.67;;;27.73;;
3627;SDS011;1830;49.000;12.074;2023-04-19T09:27:18;41.03;;;26.83;;
3627;SDS011;1830;49.000;12.074;2023-04-19T09:29:52;37.00;;;26.60;;
3627;SDS011;1830;49.000;12.074;2023-04-19T09:32:19;33.27;;;25.63;;
3627;SDS011;1830;49.000;12.074;2023-04-19T09:34:49;34.47;;;23.97;;
3627;SDS011;1830;49.000;12.074;2023-04-19T09:37:18;34.50;;;24.57;;
3627;SDS011;1830;49.000;12.074;2023-04-19T09:39:45;36.83;;;24.03;;
3627;SDS011;1830;49.000;12.074;2023-04-19T09:42:13;35.87;;;25.47;;
3627;SDS011;1830;49.000;12.074;2023-04-19T09:44:41;35.20;;;24.47;;
3627;SDS011;1830;49.000;12.074;2023-04-19T09:47:20;28.93;;;22.50;;
3627;SDS011;1830;49.000;12.074;2023-04-19T09:50:02;30.73;;;21.00;;
3627;SDS011;1830;49.000;12.074;2023-04-19T09:52:33;32.60;;;20.97;;
3627;SDS011;1830;49.000;12.074;2023-04-19T09:55:01;29.77;;;20.37;;
3627;SDS011;1830;49.000;12.074;2023-04-19T09:57:29;26.90;;;20.10;;
3627;SDS011;1830;49.000;12.074;2023-04-19T09:59:57;27.00;;;20.00;;
3627;SDS011;1830;49.000;12.074;2023-04-19T10:02:26;25.23;;;19.53;;
3627;SDS011;1830;49.000;12.074;2023-04-19T10:04:57;23.90;;;17.90;;
3627;SDS011;1830;49.000;12.074;2023-04-19T10:07:25;31.67;;;20.30;;
3627;SDS011;1830;49.000;12.074;2023-04-19T10:09:54;32.03;;;22.00;;
3627;SDS011;1830;49.000;12.074;2023-04-19T10:12:23;26.90;;;20.20;;
3627;SDS011;1830;49.000;12.074;2023-04-19T10:14:52;26.07;;;20.53;;
3627;SDS011;1830;49.000;12.074;2023-04-19T10:17:21;33.87;;;22.93;;
3627;SDS011;1830;49.000;12.074;2023-04-19T10:19:48;29.73;;;22.00;;
3627;SDS011;1830;49.000;12.074;2023-04-19T10:22:22;37.13;;;22.30;;
3627;SDS011;1830;49.000;12.074;2023-04-19T10:27:43;30.00;;;21.90;;
3627;SDS011;1830;49.000;12.074;2023-04-19T10:30:15;37.70;;;22.67;;
3627;SDS011;1830;49.000;12.074;2023-04-19T10:32:43;35.30;;;22.60;;
3627;SDS011;1830;49.000;12.074;2023-04-19T10:35:16;32.40;;;22.27;;
3627;SDS011;1830;49.000;12.074;2023-04-19T10:38:03;27.43;;;19.60;;
3627;SDS011;1830;49.000;12.074;2023-04-19T10:43:24;31.07;;;22.03;;
3627;SDS011;1830;49.000;12.074;2023-04-19T10:45:52;32.93;;;22.17;;
3627;SDS011;1830;49.000;12.074;2023-04-19T10:48:35;31.87;;;20.40;;
3627;SDS011;1830;49.000;12.074;2023-04-19T10:51:04;34.47;;;23.87;;
3627;SDS011;1830;49.000;12.074;2023-04-19T10:53:43;30.93;;;21.60;;
3627;SDS011;1830;49.000;12.074;2023-04-19T10:56:16;31.40;;;22.57;;
3627;SDS011;1830;49.000;12.074;2023-04-19T11:01:46;29.60;;;21.60;;
3627;SDS011;1830;49.000;12.074;2023-04-19T11:04:21;31.60;;;19.17;;
3627;SDS011;1830;49.000;12.074;2023-04-19T11:07:09;28.23;;;19.57;;
3627;SDS011;1830;49.000;12.074;2023-04-19T11:09:36;30.07;;;22.50;;
3627;SDS011;1830;49.000;12.074;2023-04-19T11:12:07;41.30;;;28.53;;
3627;SDS011;1830;49.000;12.074;2023-04-19T11:14:36;57.00;;;39.00;;
3627;SDS011;1830;49.000;12.074;2023-04-19T11:17:12;29.20;;;19.20;;
3627;SDS011;1830;49.000;12.074;2023-04-19T11:19:41;25.70;;;19.50;;
3627;SDS011;1830;49.000;12.074;2023-04-19T11:22:09;22.20;;;17.23;;
3627;SDS011;1830;49.000;12.074;2023-04-19T11:24:35;25.87;;;19.40;;
3627;SDS011;1830;49.000;12.074;2023-04-19T11:27:07;24.60;;;17.40;;
3627;SDS011;1830;49.000;12.074;2023-04-19T11:29:34;26.00;;;18.73;;
3627;SDS011;1830;49.000;12.074;2023-04-19T11:32:01;22.70;;;16.90;;
3627;SDS011;1830;49.000;12.074;2023-04-19T11:34:29;28.30;;;17.13;;
3627;SDS011;1830;49.000;12.074;2023-04-19T11:37:00;43.73;;;17.93;;
3627;SDS011;1830;49.000;12.074;2023-04-19T11:39:26;24.67;;;16.97;;
3627;SDS011;1830;49.000;12.074;2023-04-19T11:41:53;20.60;;;16.60;;
3627;SDS011;1830;49.000;12.074;2023-04-19T11:44:21;21.23;;;15.90;;
3627;SDS011;1830;49.000;12.074;2023-04-19T11:46:58;22.90;;;17.07;;
3627;SDS011;1830;49.000;12.074;2023-04-19T11:49:26;27.93;;;18.40;;
3627;SDS011;1830;49.000;12.074;2023-04-19T11:51:55;25.00;;;16.30;;
3627;SDS011;1830;49.000;12.074;2023-04-19T11:54:23;22.20;;;16.87;;
3627;SDS011;1830;49.000;12.074;2023-04-19T11:57:00;28.80;;;18.10;;
3627;SDS011;1830;49.000;12.074;2023-04-19T11:59:30;23.93;;;17.00;;
3627;SDS011;1830;49.000;12.074;2023-04-19T12:02:08;26.00;;;17.67;;
3627;SDS011;1830;49.000;12.074;2023-04-19T12:04:36;27.40;;;17.43;;
3627;SDS011;1830;49.000;12.074;2023-04-19T12:07:04;23.10;;;16.20;;
3627;SDS011;1830;49.000;12.074;2023-04-19T12:09:32;24.30;;;17.90;;
3627;SDS011;1830;49.000;12.074;2023-04-19T12:12:01;23.30;;;17.20;;
3627;SDS011;1830;49.000;12.074;2023-04-19T16:06:11;10.80;;;9.57;;
3627;SDS011;1830;49.000;12.074;2023-04-19T16:08:38;13.60;;;8.67;;
3627;SDS011;1830;49.000;12.074;2023-04-19T16:11:10;11.00;;;8.60;;
3627;SDS011;1830;49.000;12.074;2023-04-19T16:13:37;17.67;;;12.57;;
3627;SDS011;1830;49.000;12.074;2023-04-19T16:16:04;16.63;;;10.30;;
3627;SDS011;1830;49.000;12.074;2023-04-19T16:18:33;14.50;;;7.77;;
3627;SDS011;1830;49.000;12.074;2023-04-19T16:21:00;16.60;;;10.63;;
3627;SDS011;1830;49.000;12.074;2023-04-19T16:23:28;9.70;;;7.80;;
3627;SDS011;1830;49.000;12.074;2023-04-19T16:25:55;13.53;;;7.90;;
3627;SDS011;1830;49.000;12.074;2023-04-19T16:28:22;15.43;;;6.60;;
3627;SDS011;1830;49.000;12.074;2023-04-19T16:30:49;9.67;;;5.20;;
3627;SDS011;1830;49.000;12.074;2023-04-19T16:33:15;5.03;;;4.63;;
3627;SDS011;1830;49.000;12.074;2023-04-19T16:35:42;6.53;;;5.93;;
3627;SDS011;1830;49.000;12.074;2023-04-19T16:38:09;6.83;;;5.30;;
3627;SDS011;1830;49.000;12.074;2023-04-19T16:40:37;5.33;;;4.90;;
3627;SDS011;1830;49.000;12.074;2023-04-19T16:43:04;8.50;;;5.27;;
3627;SDS011;1830;49.000;12.074;2023-04-19T16:45:31;5.80;;;5.03;;
3627;SDS011;1830;49.000;12.074;2023-04-19T16:47:58;6.83;;;5.90;;
3627;SDS011;1830;49.000;12.074;2023-04-19T16:50:24;10.07;;;7.30;;
3627;SDS011;1830;49.000;12.074;2023-04-19T16:52:51;11.00;;;6.20;;
3627;SDS011;1830;49.000;12.074;2023-04-19T16:55:21;6.60;;;5.53;;
3627;SDS011;1830;49.000;12.074;2023-04-19T16:57:49;8.40;;;6.40;;
3627;SDS011;1830;49.000;12.074;2023-04-19T17:00:17;7.40;;;6.57;;
3627;SDS011;1830;49.000;12.074;2023-04-19T17:02:45;7.50;;;6.07;;
3627;SDS011;1830;49.000;12.074;2023-04-19T17:05:14;12.90;;;7.20;;
3627;SDS011;1830;49.000;12.074;2023-04-19T17:07:42;6.40;;;5.80;;
3627;SDS011;1830;49.000;12.074;2023-04-19T17:10:09;7.07;;;5.77;;
3627;SDS011;1830;49.000;12.074;2023-04-19T17:12:36;11.00;;;6.87;;
3627;SDS011;1830;49.000;12.074;2023-04-19T17:15:05;18.60;;;7.60;;
3627;SDS011;1830;49.000;12.074;2023-04-19T17:17:32;8.73;;;6.90;;
3627;SDS011;1830;49.000;12.074;2023-04-19T17:19:59;5.23;;;4.73;;
3627;SDS011;1830;49.000;12.074;2023-04-19T17:22:26;12.10;;;5.50;;
3627;SDS011;1830;49.000;12.074;2023-04-19T17:24:55;5.77;;;4.97;;
3627;SDS011;1830;49.000;12.074;2023-04-19T17:27:23;7.20;;;4.33;;
3627;SDS011;1830;49.000;12.074;2023-04-19T17:29:51;10.03;;;5.33;;
3627;SDS011;1830;49.000;12.074;2023-04-19T17:32:20;6.73;;;4.93;;
3627;SDS011;1830;49.000;12.074;2023-04-19T17:34:46;7.63;;;5.47;;
3627;SDS011;1830;49.000;12.074;2023-04-19T17:37:13;10.77;;;5.70;;
3627;SDS011;1830;49.000;12.074;2023-04-19T17:39:40;6.10;;;5.33;;
3627;SDS011;1830;49.000;12.074;2023-04-19T17:42:07;6.67;;;4.70;;
3627;SDS011;1830;49.000;12.074;2023-04-19T17:44:34;6.60;;;4.90;;
3627;SDS011;1830;49.000;12.074;2023-04-19T17:47:01;7.57;;;5.10;;
3627;SDS011;1830;49.000;12.074;2023-04-19T17:49:29;10.13;;;9.00;;
3627;SDS011;1830;49.000;12.074;2023-04-19T17:51:56;15.90;;;9.67;;
3627;SDS011;1830;49.000;12.074;2023-04-19T17:54:23;11.70;;;8.37;;
3627;SDS011;1830;49.000;12.074;2023-04-19T17:56:53;17.30;;;9.50;;
3627;SDS011;1830;49.000;12.074;2023-04-19T17:59:23;19.67;;;8.80;;
3627;SDS011;1830;49.000;12.074;2023-04-19T18:01:56;10.67;;;7.23;;
3627;SDS011;1830;49.000;12.074;2023-04-19T18:04:22;12.00;;;7.53;;
3627;SDS011;1830;49.000;12.074;2023-04-19T18:06:51;13.83;;;8.80;;
3627;SDS011;1830;49.000;12.074;2023-04-19T18:09:19;11.80;;;8.70;;
3627;SDS011;1830;49.000;12.074;2023-04-19T18:11:46;14.57;;;11.73;;
3627;SDS011;1830;49.000;12.074;2023-04-19T18:14:13;17.10;;;9.50;;
3627;SDS011;1830;49.000;12.074;2023-04-19T18:16:40;10.80;;;9.50;;
3627;SDS011;1830;49.000;12.074;2023-04-19T18:19:07;19.10;;;9.50;;
3627;SDS011;1830;49.000;12.074;2023-04-19T18:21:34;17.13;;;10.47;;
3627;SDS011;1830;49.000;12.074;2023-04-19T18:24:02;13.37;;;8.10;;
3627;SDS011;1830;49.000;12.074;2023-04-19T18:26:35;12.20;;;9.00;;
3627;SDS011;1830;49.000;12.074;2023-04-19T18:29:03;9.63;;;8.10;;
3627;SDS011;1830;49.000;12.074;2023-04-19T18:31:30;17.30;;;9.17;;
3627;SDS011;1830;49.000;12.074;2023-04-19T18:33:57;11.23;;;8.30;;
3627;SDS011;1830;49.000;12.074;2023-04-19T18:36:24;10.07;;;7.00;;
3627;SDS011;1830;49.000;12.074;2023-04-19T18:38:53;6.37;;;5.47;;
3627;SDS011;1830;49.000;12.074;2023-04-19T18:41:21;7.33;;;5.43;;
3627;SDS011;1830;49.000;12.074;2023-04-19T18:43:49;4.97;;;4.47;;